Time;durP1;ratioP1;P1;durP2;ratioP2;P2;SDS_P1;SDS_P2;PMS_P1;PMS_P2;Temp;Humidity;BMP_temperature;BMP_pressure;BME280_temperature;BME280_humidity;BME280_pressure;Samples;Min_cycle;Max_cycle;Signal;HPM_P1;HPM_P2
2023/09/09 00:01:31;;;;;;;;;;;;;;;22.83;54.77;101377.34;4975927;28;6233;-78
2023/09/09 00:03:58;;;;;;;;;;;;;;;22.84;55.02;101384.59;4977620;28;2241;-78
2023/09/09 00:06:25;;;;;;;;;;;;;;;22.83;54.58;101377.34;4979005;28;2196;-79
2023/09/09 00:08:51;;;;;;;;;;;;;;;22.81;54.57;101383.78;4978184;28;2254;-79
2023/09/09 00:11:17;;;;;;;;;;;;;;;22.79;54.59;101380.78;4977866;28;2278;-79
2023/09/09 00:13:45;;;;;;;;;;;;;;;22.79;54.70;101386.56;4976677;28;2180;-78
2023/09/09 00:16:12;;;;;;;;;;;;;;;22.77;54.71;101383.63;4978349;28;2009;-79
2023/09/09 00:18:38;;;;;;;;;;;;;;;22.75;54.90;101383.53;4979506;28;2168;-80
2023/09/09 00:21:05;;;;;;;;;;;;;;;22.76;55.00;101379.22;4976110;28;2309;-79
2023/09/09 00:23:31;;;;;;;;;;;;;;;22.74;54.76;101382.03;4993477;28;2315;-79
2023/09/09 00:25:58;;;;;;;;;;;;;;;22.73;54.84;101386.31;4974909;28;2278;-78
2023/09/09 00:28:24;;;;;;;;;;;;;;;22.72;54.62;101373.25;4980106;28;2184;-78
2023/09/09 00:30:51;;;;;;;;;;;;;;;22.70;54.79;101381.84;4979183;28;6039;-79
2023/09/09 00:33:17;;;;;;;;;;;;;;;22.69;54.71;101374.59;4980805;28;2042;-79
2023/09/09 00:35:44;;;;;;;;;;;;;;;22.66;54.29;101378.78;4975578;28;2187;-79
2023/09/09 00:38:11;;;;;;;;;;;;;;;22.65;54.39;101374.41;4980293;28;2029;-79
2023/09/09 00:40:37;;;;;;;;;;;;;;;22.63;54.33;101375.06;4976378;28;2137;-78
2023/09/09 00:43:03;;;;;;;;;;;;;;;22.64;54.48;101375.81;4977781;28;1951;-78
2023/09/09 00:45:30;;;;;;;;;;;;;;;22.63;54.52;101380.06;4994584;28;2080;-79
2023/09/09 00:47:56;;;;;;;;;;;;;;;22.61;54.25;101377.84;4976743;28;2240;-79
2023/09/09 00:50:23;;;;;;;;;;;;;;;22.61;54.17;101374.22;4979460;28;2186;-79
2023/09/09 00:52:49;;;;;;;;;;;;;;;22.58;54.07;101371.22;4980210;28;2287;-79
2023/09/09 00:55:16;;;;;;;;;;;;;;;22.57;54.06;101374.78;4975812;28;2358;-79
2023/09/09 00:57:42;;;;;;;;;;;;;;;22.57;54.71;101371.91;4980474;28;2224;-79
2023/09/09 01:00:09;;;;;;;;;;;;;;;22.55;54.17;101366.75;4973193;28;6086;-79
2023/09/09 01:02:37;;;;;;;;;;;;;;;22.54;54.23;101371.06;4976258;28;2329;-80
2023/09/09 01:05:04;;;;;;;;;;;;;;;22.54;54.59;101368.19;4978266;28;2196;-79
2023/09/09 01:07:40;;;;;;;;;;;;;;;22.54;54.40;101367.41;4976312;28;2433;-79
2023/09/09 01:10:07;;;;;;;;;;;;;;;22.53;54.39;101366.66;4976475;28;2372;-79
2023/09/09 01:12:33;;;;;;;;;;;;;;;22.51;54.17;101360.81;4977868;28;2081;-79
2023/09/09 01:15:00;;;;;;;;;;;;;;;22.50;54.25;101359.31;4979890;28;2228;-78
2023/09/09 01:17:26;;;;;;;;;;;;;;;22.46;54.61;101362.03;4974030;28;2205;-79
2023/09/09 01:19:53;;;;;;;;;;;;;;;22.47;54.24;101371.41;4977301;28;2275;-79
2023/09/09 01:22:19;;;;;;;;;;;;;;;22.46;54.11;101359.13;4979760;28;2321;-79
2023/09/09 01:24:46;;;;;;;;;;;;;;;22.47;54.24;101365.66;4976498;28;2181;-79
2023/09/09 01:27:14;;;;;;;;;;;;;;;22.44;54.42;101361.94;4976709;28;2223;-79
2023/09/09 01:29:41;;;;;;;;;;;;;;;22.42;54.25;101361.81;4973094;28;2219;-79
2023/09/09 01:32:07;;;;;;;;;;;;;;;22.41;54.32;101363.25;4976160;28;6029;-79
2023/09/09 01:34:33;;;;;;;;;;;;;;;22.38;54.26;101358.78;4974680;28;2499;-79
2023/09/09 01:37:00;;;;;;;;;;;;;;;22.39;53.85;101357.38;4979147;28;2211;-79
2023/09/09 01:39:26;;;;;;;;;;;;;;;22.39;54.20;101354.50;4981817;28;2180;-79
2023/09/09 01:41:53;;;;;;;;;;;;;;;22.38;53.85;101365.28;4966618;28;2355;-79
2023/09/09 01:44:19;;;;;;;;;;;;;;;22.38;54.11;101358.78;4993828;28;2238;-78
2023/09/09 01:46:45;;;;;;;;;;;;;;;22.36;54.11;101361.56;4979043;28;2089;-78
2023/09/09 01:49:12;;;;;;;;;;;;;;;22.35;53.89;101365.84;4977714;28;1803;-78
2023/09/09 01:51:38;;;;;;;;;;;;;;;22.34;53.83;101356.44;4970919;28;2188;-79
2023/09/09 01:54:05;;;;;;;;;;;;;;;22.33;53.66;101357.09;4991234;28;2393;-78
2023/09/09 01:56:31;;;;;;;;;;;;;;;22.32;54.01;101358.50;4989461;28;2282;-78
2023/09/09 01:58:58;;;;;;;;;;;;;;;22.32;53.83;101349.84;4978333;28;1643;-79
2023/09/09 02:01:24;;;;;;;;;;;;;;;22.29;53.83;101363.44;4987238;28;6071;-79
2023/09/09 02:03:51;;;;;;;;;;;;;;;22.28;53.98;101350.38;4977494;28;1991;-78
2023/09/09 02:06:18;;;;;;;;;;;;;;;22.27;53.66;101346.03;4973325;28;2215;-77
2023/09/09 02:08:44;;;;;;;;;;;;;;;22.27;53.93;101353.94;4976947;28;2133;-79
2023/09/09 02:11:11;;;;;;;;;;;;;;;22.25;53.67;101348.81;4976564;28;2480;-78
2023/09/09 02:13:37;;;;;;;;;;;;;;;22.24;53.60;101349.44;4989262;28;2252;-79
2023/09/09 02:16:05;;;;;;;;;;;;;;;22.22;53.70;101352.22;4992854;28;2046;-79
2023/09/09 02:18:31;;;;;;;;;;;;;;;22.21;53.74;101345.72;4976492;28;2372;-79
2023/09/09 02:20:58;;;;;;;;;;;;;;;22.18;53.47;101349.91;4977125;28;2105;-79
2023/09/09 02:23:24;;;;;;;;;;;;;;;22.21;53.30;101356.50;4973156;28;2212;-78
2023/09/09 02:25:50;;;;;;;;;;;;;;;22.16;53.47;101344.75;4975970;28;2208;-79
2023/09/09 02:28:17;;;;;;;;;;;;;;;22.17;53.38;101340.50;4988863;28;2041;-79
2023/09/09 02:30:43;;;;;;;;;;;;;;;22.15;53.35;101343.28;4975171;28;6185;-79
2023/09/09 02:33:10;;;;;;;;;;;;;;;22.13;53.67;101346.06;4978315;28;1951;-78
2023/09/09 02:35:43;;;;;;;;;;;;;;;22.13;53.76;101340.31;4977425;28;2615;-78
2023/09/09 02:38:09;;;;;;;;;;;;;;;22.11;53.74;101343.09;4978604;28;2185;-78
2023/09/09 02:40:36;;;;;;;;;;;;;;;22.09;54.08;101340.13;4979773;28;2291;-78
2023/09/09 02:43:02;;;;;;;;;;;;;;;22.11;54.21;101337.31;4979714;28;2290;-79
2023/09/09 02:45:29;;;;;;;;;;;;;;;22.09;54.11;101331.47;4979847;28;2356;-78
2023/09/09 02:47:55;;;;;;;;;;;;;;;22.10;54.10;101338.72;4981753;28;1833;-78
2023/09/09 02:50:21;;;;;;;;;;;;;;;22.11;54.02;101336.59;4978423;28;2117;-78
2023/09/09 02:52:48;;;;;;;;;;;;;;;22.10;54.20;101332.94;4993253;28;2164;-79
2023/09/09 02:55:14;;;;;;;;;;;;;;;22.11;54.39;101330.81;4983050;28;2188;-78
2023/09/09 02:57:41;;;;;;;;;;;;;;;22.08;54.40;101332.88;4993764;28;2208;-78
2023/09/09 03:00:07;;;;;;;;;;;;;;;22.08;54.43;101332.88;4979512;28;6115;-78
2023/09/09 03:02:34;;;;;;;;;;;;;;;22.07;54.22;101325.59;4980945;28;2304;-78
2023/09/09 03:05:00;;;;;;;;;;;;;;;22.06;54.59;101329.88;4997454;28;1586;-78
2023/09/09 03:07:27;;;;;;;;;;;;;;;22.06;54.61;101323.34;4993237;28;2250;-79
2023/09/09 03:09:55;;;;;;;;;;;;;;;22.05;54.34;101328.38;4995614;28;2104;-79
2023/09/09 03:12:22;;;;;;;;;;;;;;;22.03;54.38;101322.50;4980485;28;2140;-79
2023/09/09 03:14:48;;;;;;;;;;;;;;;22.02;54.53;101326.81;4995438;28;2638;-78
2023/09/09 03:17:15;;;;;;;;;;;;;;;22.03;54.63;101319.63;4991390;28;2189;-78
2023/09/09 03:19:42;;;;;;;;;;;;;;;22.03;54.32;101331.16;4994909;28;2198;-79
2023/09/09 03:22:08;;;;;;;;;;;;;;;22.02;54.72;101328.94;4978916;28;2235;-77
2023/09/09 03:24:34;;;;;;;;;;;;;;;22.02;54.51;101331.84;4978376;28;1613;-78
2023/09/09 03:27:01;;;;;;;;;;;;;;;22.02;54.96;101329.69;4992969;28;2220;-79
2023/09/09 03:29:28;;;;;;;;;;;;;;;22.03;54.99;101336.94;4991153;28;2203;-79
2023/09/09 03:31:55;;;;;;;;;;;;;;;22.00;55.20;101331.72;4991228;28;6215;-79
2023/09/09 03:34:21;;;;;;;;;;;;;;;21.99;55.16;101331.00;4977873;28;2240;-78
2023/09/09 03:36:48;;;;;;;;;;;;;;;22.00;55.18;101335.34;4987711;28;2501;-78
2023/09/09 03:39:14;;;;;;;;;;;;;;;22.00;55.53;101338.25;4979815;28;2233;-78
2023/09/09 03:41:41;;;;;;;;;;;;;;;21.99;55.69;101339.66;4977705;28;2303;-78
2023/09/09 03:44:07;;;;;;;;;;;;;;;21.98;55.79;101335.25;4995628;28;2258;-78
2023/09/09 03:46:35;;;;;;;;;;;;;;;22.00;56.17;101338.25;4977415;28;2265;-78
2023/09/09 03:49:02;;;;;;;;;;;;;;;22.00;55.95;101332.47;4979334;28;1996;-78
2023/09/09 03:51:29;;;;;;;;;;;;;;;22.02;56.09;101328.94;4976547;28;2806;-78
2023/09/09 03:53:56;;;;;;;;;;;;;;;22.01;55.99;101333.94;4978289;28;2120;-78
2023/09/09 03:56:22;;;;;;;;;;;;;;;21.99;56.04;101331.00;4977730;28;2253;-78
2023/09/09 03:58:49;;;;;;;;;;;;;;;21.99;56.46;101336.75;4987778;28;2414;-78
2023/09/09 04:01:15;;;;;;;;;;;;;;;22.00;56.56;101337.50;4977989;28;6114;-78
2023/09/09 04:03:42;;;;;;;;;;;;;;;22.00;56.37;101344.00;4979336;28;2114;-78
2023/09/09 04:06:13;;;;;;;;;;;;;;;21.98;56.62;101341.03;4988790;28;2276;-79
2023/09/09 04:08:41;;;;;;;;;;;;;;;21.98;56.37;101338.13;4977844;28;2440;-78
2023/09/09 04:11:08;;;;;;;;;;;;;;;21.97;56.75;101342.44;4988095;28;2231;-77
2023/09/09 04:13:37;;;;;;;;;;;;;;;21.96;56.53;101335.16;4975495;28;2263;-70
2023/09/09 04:16:04;;;;;;;;;;;;;;;21.96;56.40;101343.81;4977037;28;2160;-72
2023/09/09 04:18:31;;;;;;;;;;;;;;;21.94;56.75;101340.81;4992221;28;2137;-72
2023/09/09 04:21:12;;;;;;;;;;;;;;;21.95;56.78;101337.31;4989002;28;2203;-72
2023/09/09 04:23:38;;;;;;;;;;;;;;;21.94;56.83;101338.72;4980041;28;1719;-72
2023/09/09 04:26:06;;;;;;;;;;;;;;;21.95;56.82;101342.34;4993407;28;2124;-72
2023/09/09 04:28:33;;;;;;;;;;;;;;;21.95;56.88;101339.44;4977525;28;2412;-72
2023/09/09 04:30:59;;;;;;;;;;;;;;;21.95;57.21;101333.69;4993096;28;7545;-71
2023/09/09 04:33:26;;;;;;;;;;;;;;;21.93;56.88;101336.47;4975860;28;2181;-72
2023/09/09 04:35:52;;;;;;;;;;;;;;;21.94;56.99;101344.47;4977026;28;2402;-72
2023/09/09 04:38:20;;;;;;;;;;;;;;;21.95;57.35;101342.34;4977951;28;2303;-72
2023/09/09 04:40:46;;;;;;;;;;;;;;;21.94;57.49;101329.28;4987744;28;2262;-72
2023/09/09 04:43:13;;;;;;;;;;;;;;;21.95;57.51;101342.34;4986289;28;2239;-72
2023/09/09 04:45:39;;;;;;;;;;;;;;;21.94;57.44;101332.19;4979983;28;2054;-72
2023/09/09 04:48:06;;;;;;;;;;;;;;;21.92;57.45;101332.84;4977724;28;2025;-72
2023/09/09 04:50:32;;;;;;;;;;;;;;;21.93;57.52;101330.69;4985612;28;2259;-72
2023/09/09 04:52:59;;;;;;;;;;;;;;;21.93;57.75;101336.47;4991215;28;2156;-72
2023/09/09 04:55:25;;;;;;;;;;;;;;;21.92;57.81;101327.06;4991948;28;2357;-72
2023/09/09 04:57:52;;;;;;;;;;;;;;;21.95;57.71;101330.81;4991940;28;2191;-72
2023/09/09 05:00:18;;;;;;;;;;;;;;;21.93;57.74;101328.56;4975719;28;6064;-72
2023/09/09 05:02:45;;;;;;;;;;;;;;;21.93;58.21;101331.44;4976448;28;2223;-72
2023/09/09 05:05:11;;;;;;;;;;;;;;;21.93;58.22;101336.47;4989707;28;2045;-72
2023/09/09 05:07:38;;;;;;;;;;;;;;;21.92;58.04;101337.84;4989278;28;2181;-72
2023/09/09 05:10:06;;;;;;;;;;;;;;;21.93;58.20;101333.59;4976953;28;2236;-72
2023/09/09 05:12:36;;;;;;;;;;;;;;;21.92;58.23;101338.63;4982079;28;2140;-72
2023/09/09 05:15:05;;;;;;;;;;;;;;;21.92;58.33;101337.84;4975908;28;1869;-72
2023/09/09 05:17:31;;;;;;;;;;;;;;;21.94;58.20;101335.06;4991775;28;2136;-72
2023/09/09 05:19:58;;;;;;;;;;;;;;;21.94;58.47;101332.19;4976884;28;2199;-72
2023/09/09 05:22:24;;;;;;;;;;;;;;;21.92;58.30;101332.06;4976145;28;2232;-72
2023/09/09 05:24:51;;;;;;;;;;;;;;;21.95;58.39;101336.56;4978066;28;2224;-72
2023/09/09 05:27:17;;;;;;;;;;;;;;;21.93;58.44;101324.94;4976514;28;2367;-72
2023/09/09 05:29:43;;;;;;;;;;;;;;;21.95;58.40;101330.81;4975083;28;2208;-72
2023/09/09 05:32:10;;;;;;;;;;;;;;;21.95;58.51;101336.56;4975313;28;6501;-72
2023/09/09 05:34:37;;;;;;;;;;;;;;;21.94;59.02;101335.06;4984536;28;2263;-72
2023/09/09 05:37:03;;;;;;;;;;;;;;;21.95;59.06;101343.06;4976157;28;2231;-72
2023/09/09 05:39:30;;;;;;;;;;;;;;;21.64;60.58;101335.09;4959708;28;2195;-69
2023/09/09 05:41:56;;;;;;;;;;;;;;;19.63;68.07;101338.91;4982769;28;2298;-79
2023/09/09 05:44:23;;;;;;;;;;;;;;;18.61;73.65;101335.75;4978102;28;1859;-78
2023/09/09 05:46:49;;;;;;;;;;;;;;;18.42;75.33;101351.09;4973942;28;2063;-79
2023/09/09 05:49:17;;;;;;;;;;;;;;;18.85;74.12;101345.09;4975793;28;2513;-79
2023/09/09 05:52:03;;;;;;;;;;;;;;;18.77;74.91;101351.09;4975206;28;2132;-77
2023/09/09 05:54:30;;;;;;;;;;;;;;;18.53;76.05;101355.31;4975813;28;2093;-79
2023/09/09 05:56:57;;;;;;;;;;;;;;;18.55;76.95;101347.59;4975569;28;2300;-75
2023/09/09 05:59:23;;;;;;;;;;;;;;;18.62;76.41;101351.56;4971519;28;2646;-73
2023/09/09 06:01:50;;;;;;;;;;;;;;;18.80;75.86;101349.09;4991558;28;7348;-78
2023/09/09 06:04:17;;;;;;;;;;;;;;;18.79;76.03;101345.50;4975760;28;2212;-75
2023/09/09 06:06:45;;;;;;;;;;;;;;;18.89;75.05;101347.47;4993634;28;2087;-75
2023/09/09 06:09:12;;;;;;;;;;;;;;;19.07;74.54;101348.56;4990459;28;2211;-75
2023/09/09 06:11:38;;;;;;;;;;;;;;;19.14;74.05;101356.16;4992630;28;1912;-75
2023/09/09 06:14:05;;;;;;;;;;;;;;;19.08;74.19;101344.34;4987024;28;1962;-75
2023/09/09 06:16:32;;;;;;;;;;;;;;;19.35;73.48;101355.22;4976988;28;2415;-75
2023/09/09 06:18:58;;;;;;;;;;;;;;;19.08;73.71;101355.81;4979136;28;2413;-74
2023/09/09 06:21:25;;;;;;;;;;;;;;;19.29;73.22;101357.00;4975087;28;2158;-75
2023/09/09 06:23:52;;;;;;;;;;;;;;;19.21;73.75;101360.16;4976302;28;2286;-75
2023/09/09 06:26:18;;;;;;;;;;;;;;;19.16;73.49;101362.03;4980358;28;2555;-85
2023/09/09 06:28:45;;;;;;;;;;;;;;;19.18;73.95;101362.16;4991487;28;2010;-85
2023/09/09 06:31:11;;;;;;;;;;;;;;;19.14;74.60;101364.78;4990117;28;6062;-82
2023/09/09 06:33:38;;;;;;;;;;;;;;;19.25;73.47;101369.75;4972250;28;2285;-79
2023/09/09 06:36:09;;;;;;;;;;;;;;;19.35;72.70;101369.59;4975611;28;2179;-86
2023/09/09 06:38:35;;;;;;;;;;;;;;;19.46;72.80;101370.94;4991267;28;1653;-86
2023/09/09 06:41:02;;;;;;;;;;;;;;;19.64;72.03;101374.88;4978934;28;2172;-86
2023/09/09 06:43:28;;;;;;;;;;;;;;;20.00;70.37;101369.00;4991497;28;2223;-72
2023/09/09 06:45:56;;;;;;;;;;;;;;;20.74;67.54;101373.72;4974687;28;2924;-73
2023/09/09 06:48:22;;;;;;;;;;;;;;;21.01;66.23;101372.25;4972639;28;2132;-72
2023/09/09 06:50:48;;;;;;;;;;;;;;;21.15;65.50;101375.84;4976472;28;1855;-73
2023/09/09 06:53:15;;;;;;;;;;;;;;;21.23;65.21;101384.91;4977671;28;1985;-72
2023/09/09 06:55:44;;;;;;;;;;;;;;;21.31;64.65;101375.94;4977879;28;2235;-72
2023/09/09 06:58:12;;;;;;;;;;;;;;;21.37;64.40;101378.38;4976543;28;2275;-72
2023/09/09 07:00:38;;;;;;;;;;;;;;;21.41;63.97;101378.59;4975152;28;6145;-72
2023/09/09 07:03:05;;;;;;;;;;;;;;;21.46;63.95;101380.28;4974798;28;2753;-73
2023/09/09 07:05:32;;;;;;;;;;;;;;;21.47;63.67;101382.53;4975123;28;2211;-73
2023/09/09 07:07:58;;;;;;;;;;;;;;;21.51;63.52;101382.75;4976404;28;1963;-73
2023/09/09 07:10:24;;;;;;;;;;;;;;;21.54;63.18;101380.72;4977033;28;1783;-72
2023/09/09 07:12:51;;;;;;;;;;;;;;;21.57;63.23;101382.28;4976668;28;1915;-72
2023/09/09 07:15:18;;;;;;;;;;;;;;;21.61;62.69;101379.63;4976724;28;2058;-72
2023/09/09 07:17:46;;;;;;;;;;;;;;;21.63;62.64;101376.84;4977018;28;2054;-72
2023/09/09 07:20:12;;;;;;;;;;;;;;;21.65;62.54;101374.06;4976424;28;1874;-72
2023/09/09 07:22:39;;;;;;;;;;;;;;;21.67;62.48;101382.81;4979505;28;1862;-72
2023/09/09 07:25:06;;;;;;;;;;;;;;;21.71;62.31;101376.47;4980603;28;2109;-72
2023/09/09 07:27:32;;;;;;;;;;;;;;;21.73;61.96;101380.22;4982939;28;2217;-73
2023/09/09 07:29:58;;;;;;;;;;;;;;;21.75;61.86;101368.78;4979125;28;2235;-72
2023/09/09 07:32:25;;;;;;;;;;;;;;;21.77;62.01;101378.94;4980568;28;6162;-72
2023/09/09 07:34:51;;;;;;;;;;;;;;;21.77;61.92;101388.31;4994429;28;2167;-73
2023/09/09 07:37:18;;;;;;;;;;;;;;;21.78;61.47;101381.16;4980613;28;2168;-72
2023/09/09 07:39:50;;;;;;;;;;;;;;;21.80;61.42;101372.59;4981004;28;1597;-73
2023/09/09 07:42:17;;;;;;;;;;;;;;;21.82;61.58;101375.59;4979659;28;2215;-72
2023/09/09 07:44:44;;;;;;;;;;;;;;;21.84;61.47;101377.84;4980680;28;1629;-72
2023/09/09 07:47:10;;;;;;;;;;;;;;;21.87;61.23;101385.19;4978321;28;2219;-72
2023/09/09 07:49:37;;;;;;;;;;;;;;;21.89;61.29;101388.16;4980527;28;2224;-72
2023/09/09 07:52:03;;;;;;;;;;;;;;;21.90;61.25;101386.78;4981143;28;1835;-72
2023/09/09 07:54:30;;;;;;;;;;;;;;;21.91;61.16;101383.25;4979771;28;2506;-71
2023/09/09 07:56:58;;;;;;;;;;;;;;;21.89;61.09;101385.28;4975730;28;2189;-72
2023/09/09 07:59:26;;;;;;;;;;;;;;;21.95;60.74;101382.69;4991611;28;2294;-74
2023/09/09 08:01:53;;;;;;;;;;;;;;;21.95;60.96;101376.94;4975742;28;6183;-71
2023/09/09 08:04:19;;;;;;;;;;;;;;;21.95;60.68;101382.69;4979417;28;2324;-73
2023/09/09 08:06:46;;;;;;;;;;;;;;;22.03;60.76;101391.72;4974405;28;2292;-73
2023/09/09 08:09:12;;;;;;;;;;;;;;;22.02;60.63;101384.47;4980150;28;2239;-74
2023/09/09 08:11:39;;;;;;;;;;;;;;;22.02;61.08;101381.59;4979584;28;2239;-75
2023/09/09 08:14:05;;;;;;;;;;;;;;;22.10;60.76;101387.00;4976112;28;2507;-73
2023/09/09 08:16:32;;;;;;;;;;;;;;;22.11;60.38;101383.47;4976651;28;2235;-73
2023/09/09 08:19:00;;;;;;;;;;;;;;;22.14;60.25;101382.16;4977726;28;2607;-73
2023/09/09 08:21:26;;;;;;;;;;;;;;;22.15;60.45;101388.69;4974963;28;2512;-72
2023/09/09 08:23:53;;;;;;;;;;;;;;;22.14;60.30;101385.06;4980094;28;2165;-73
2023/09/09 08:26:19;;;;;;;;;;;;;;;22.14;60.25;101385.06;4979422;28;2239;-73
2023/09/09 08:28:46;;;;;;;;;;;;;;;22.15;60.16;101389.44;4976606;28;2669;-73
2023/09/09 08:31:12;;;;;;;;;;;;;;;22.16;60.23;101384.41;4977443;28;6009;-73
2023/09/09 08:33:39;;;;;;;;;;;;;;;22.17;60.22;101380.88;4976310;28;2179;-72
2023/09/09 08:36:06;;;;;;;;;;;;;;;22.18;60.28;101390.28;4976717;28;2208;-73
2023/09/09 08:38:32;;;;;;;;;;;;;;;22.16;60.30;101390.19;4976087;28;2227;-73
2023/09/09 08:41:03;;;;;;;;;;;;;;;22.15;60.21;101389.44;4977433;28;2583;-73
2023/09/09 08:43:46;;;;;;;;;;;;;;;22.20;59.95;101386.75;4976592;28;2255;-73
2023/09/09 08:46:14;;;;;;;;;;;;;;;22.19;60.16;101388.88;4978718;28;2105;-73
2023/09/09 08:48:40;;;;;;;;;;;;;;;22.24;60.08;101395.59;4979447;28;2152;-73
2023/09/09 08:51:08;;;;;;;;;;;;;;;22.22;59.92;101384.72;4978236;28;1816;-74
2023/09/09 08:53:34;;;;;;;;;;;;;;;22.24;59.94;101386.94;4977173;28;2232;-73
2023/09/09 08:56:01;;;;;;;;;;;;;;;22.26;59.88;101387.78;4974466;28;2331;-73
2023/09/09 08:58:28;;;;;;;;;;;;;;;22.27;60.10;101382.78;4994607;28;2259;-74
2023/09/09 09:00:54;;;;;;;;;;;;;;;22.30;60.10;101381.47;4976583;28;6246;-74
2023/09/09 09:03:20;;;;;;;;;;;;;;;22.30;59.65;101381.47;4977697;28;2300;-73
2023/09/09 09:05:47;;;;;;;;;;;;;;;22.30;59.80;101381.47;4975797;28;2521;-73
2023/09/09 09:08:13;;;;;;;;;;;;;;;22.30;60.30;101387.97;4976980;28;2487;-73
2023/09/09 09:10:40;;;;;;;;;;;;;;;22.33;59.89;101383.06;4978733;28;2287;-73
2023/09/09 09:13:06;;;;;;;;;;;;;;;22.31;59.92;101382.94;4975414;28;2318;-73
2023/09/09 09:15:35;;;;;;;;;;;;;;;22.36;60.22;101384.66;4976530;28;2180;-73
2023/09/09 09:18:02;;;;;;;;;;;;;;;22.35;59.95;101383.16;4976178;28;2172;-73
2023/09/09 09:20:29;;;;;;;;;;;;;;;22.37;60.07;101375.31;4974636;28;2322;-73
2023/09/09 09:22:59;;;;;;;;;;;;;;;22.40;59.77;101384.81;4980520;28;2173;-73
2023/09/09 09:25:26;;;;;;;;;;;;;;;22.37;60.19;101386.88;4973808;28;2252;-74
2023/09/09 09:27:56;;;;;;;;;;;;;;;22.42;59.80;101392.84;4973848;28;2181;-73
2023/09/09 09:30:23;;;;;;;;;;;;;;;22.40;60.17;101381.94;4971292;28;6312;-73
2023/09/09 09:32:54;;;;;;;;;;;;;;;22.43;59.66;101382.78;4976994;28;2200;-73
2023/09/09 09:35:27;;;;;;;;;;;;;;;22.45;59.89;101374.22;4973692;28;2275;-75
2023/09/09 09:37:53;;;;;;;;;;;;;;;22.46;59.70;101376.44;4972522;28;2252;-75
2023/09/09 09:40:20;;;;;;;;;;;;;;;22.50;59.98;101381.69;4975351;28;2251;-72
2023/09/09 09:42:46;;;;;;;;;;;;;;;22.51;59.97;101375.22;4974649;28;2285;-75
2023/09/09 09:45:13;;;;;;;;;;;;;;;22.54;59.59;101391.25;4978834;28;2578;-73
2023/09/09 09:47:43;;;;;;;;;;;;;;;22.57;59.53;101375.53;4975966;28;2251;-76
2023/09/09 09:50:16;;;;;;;;;;;;;;;22.58;59.64;101376.25;4973993;28;2175;-76
2023/09/09 09:52:46;;;;;;;;;;;;;;;22.56;59.71;101370.38;4973699;28;2326;-76
2023/09/09 09:55:18;;;;;;;;;;;;;;;22.58;59.71;101374.09;4973657;28;2597;-76
2023/09/09 09:57:45;;;;;;;;;;;;;;;22.58;59.80;101356.78;4975759;28;2264;-75
2023/09/09 10:00:12;;;;;;;;;;;;;;;22.60;59.56;101361.91;4973898;28;6150;-75
2023/09/09 10:02:41;;;;;;;;;;;;;;;22.59;59.86;101366.97;4974780;28;2263;-75
2023/09/09 10:05:10;;;;;;;;;;;;;;;22.63;60.31;101359.88;4972794;28;2200;-76
2023/09/09 10:07:37;;;;;;;;;;;;;;;22.62;60.60;101352.63;4972318;28;2227;-75
2023/09/09 10:10:07;;;;;;;;;;;;;;;22.65;60.55;101351.31;4971790;28;2295;-75
2023/09/09 10:12:36;;;;;;;;;;;;;;;22.66;60.58;101352.81;4976523;28;2145;-75
2023/09/09 10:15:15;;;;;;;;;;;;;;;22.67;60.66;101360.78;4974653;28;2247;-74
2023/09/09 10:17:41;;;;;;;;;;;;;;;22.67;61.04;101354.28;4976398;28;2312;-73
2023/09/09 10:20:08;;;;;;;;;;;;;;;22.71;60.98;101351.59;4973510;28;2505;-71
2023/09/09 10:22:34;;;;;;;;;;;;;;;22.73;60.99;101352.41;4974516;28;2124;-74
2023/09/09 10:25:03;;;;;;;;;;;;;;;22.73;61.26;101345.91;4972482;28;2257;-72
2023/09/09 10:27:29;;;;;;;;;;;;;;;22.74;61.47;101341.59;4972334;28;2452;-72
2023/09/09 10:29:56;;;;;;;;;;;;;;;22.75;61.58;101343.09;4974878;28;2298;-72
2023/09/09 10:32:22;;;;;;;;;;;;;;;22.78;61.81;101338.91;4975147;28;6071;-72
2023/09/09 10:34:49;;;;;;;;;;;;;;;22.79;61.80;101346.16;4978023;28;2237;-72
2023/09/09 10:37:16;;;;;;;;;;;;;;;22.82;62.26;101344.88;4974125;28;2200;-72
2023/09/09 10:39:42;;;;;;;;;;;;;;;22.87;62.25;101343.63;4974250;28;2220;-78
2023/09/09 10:42:09;;;;;;;;;;;;;;;22.83;62.41;101343.44;4975153;28;2282;-74
2023/09/09 10:44:35;;;;;;;;;;;;;;;22.91;62.36;101340.19;4971725;28;2284;-73
2023/09/09 10:47:01;;;;;;;;;;;;;;;22.91;63.09;101343.06;4974204;28;2324;-71
2023/09/09 10:49:32;;;;;;;;;;;;;;;22.91;63.31;101338.03;4980569;28;2234;-72
2023/09/09 10:51:58;;;;;;;;;;;;;;;22.92;63.15;101339.50;4975008;28;2224;-71
2023/09/09 10:54:25;;;;;;;;;;;;;;;22.92;63.37;101339.50;4970769;28;2351;-73
2023/09/09 10:56:53;;;;;;;;;;;;;;;22.90;63.16;101336.53;4978684;28;2215;-72
2023/09/09 10:59:27;;;;;;;;;;;;;;;22.95;63.06;101340.34;4977190;28;2284;-71
2023/09/09 11:02:10;;;;;;;;;;;;;;;22.94;63.31;101330.94;4978794;28;6399;-71
2023/09/09 11:04:36;;;;;;;;;;;;;;;22.93;63.37;101341.03;4976302;28;2164;-69
2023/09/09 11:07:15;;;;;;;;;;;;;;;22.93;64.08;101335.25;4977507;28;2723;-71
2023/09/09 11:09:51;;;;;;;;;;;;;;;22.95;64.20;101331.69;4976716;28;2313;-72
2023/09/09 11:12:18;;;;;;;;;;;;;;;22.95;64.49;101320.88;4982796;28;2345;-69
2023/09/09 11:14:47;;;;;;;;;;;;;;;23.02;64.20;101326.94;4981651;28;2211;-70
2023/09/09 11:17:13;;;;;;;;;;;;;;;23.02;62.82;101336.38;4979093;28;2287;-68
2023/09/09 11:19:40;;;;;;;;;;;;;;;23.06;62.80;101324.22;4979334;28;2255;-69
2023/09/09 11:22:07;;;;;;;;;;;;;;;23.05;62.10;101325.66;4976957;28;2344;-68
2023/09/09 11:24:34;;;;;;;;;;;;;;;23.00;61.36;101319.69;4977181;28;2221;-68
2023/09/09 11:27:01;;;;;;;;;;;;;;;23.02;60.71;101324.06;4976114;28;2343;-69
2023/09/09 11:29:28;;;;;;;;;;;;;;;23.13;60.07;101320.19;4978617;28;2282;-67
2023/09/09 11:32:03;;;;;;;;;;;;;;;23.16;59.29;101316.00;4975951;28;6828;-68
2023/09/09 11:34:31;;;;;;;;;;;;;;;23.13;58.99;101314.41;4984487;28;7045;-69
2023/09/09 11:37:01;;;;;;;;;;;;;;;23.12;58.22;101310.06;4979169;28;2108;-68
2023/09/09 11:39:28;;;;;;;;;;;;;;;23.10;57.78;101302.03;4961750;28;6956;-69
2023/09/09 11:41:54;;;;;;;;;;;;;;;23.11;57.60;101311.44;4977068;28;2176;-69
2023/09/09 11:44:21;;;;;;;;;;;;;;;23.09;57.51;101305.56;4976499;28;2402;-69
2023/09/09 11:46:47;;;;;;;;;;;;;;;23.08;57.75;101310.63;4977620;28;2227;-69
2023/09/09 11:49:16;;;;;;;;;;;;;;;23.04;57.91;101306.81;4981014;28;2214;-69
2023/09/09 11:51:42;;;;;;;;;;;;;;;23.00;57.92;101304.50;4979779;28;2207;-69
2023/09/09 11:54:09;;;;;;;;;;;;;;;22.99;58.22;101303.75;4979435;28;2185;-69
2023/09/09 11:56:36;;;;;;;;;;;;;;;22.97;58.33;101297.84;4979683;28;2293;-69
2023/09/09 11:59:06;;;;;;;;;;;;;;;22.95;58.43;101289.13;4977614;28;2187;-69
2023/09/09 12:01:44;;;;;;;;;;;;;;;22.95;58.20;101302.78;4979372;28;6255;-69
2023/09/09 12:04:11;;;;;;;;;;;;;;;22.95;58.57;101294.91;4978433;28;2225;-69
2023/09/09 12:06:45;;;;;;;;;;;;;;;22.94;58.57;101293.41;4975845;28;2261;-69
2023/09/09 12:09:12;;;;;;;;;;;;;;;22.94;58.57;101292.66;4980289;28;2263;-69
2023/09/09 12:11:38;;;;;;;;;;;;;;;22.94;58.70;101278.97;4976208;28;1992;-69
2023/09/09 12:14:05;;;;;;;;;;;;;;;22.93;58.69;101285.38;4978459;28;2117;-69
2023/09/09 12:16:32;;;;;;;;;;;;;;;22.94;58.72;101287.63;4976895;28;2671;-69
2023/09/09 12:18:58;;;;;;;;;;;;;;;22.95;58.51;101274.69;4979072;28;1858;-69
2023/09/09 12:21:24;;;;;;;;;;;;;;;22.95;58.59;101285.47;4980465;28;2269;-69
2023/09/09 12:23:58;;;;;;;;;;;;;;;22.94;58.60;101278.97;4978747;28;2232;-69
2023/09/09 12:26:24;;;;;;;;;;;;;;;22.96;58.45;101281.94;4979898;28;2398;-69
2023/09/09 12:29:07;;;;;;;;;;;;;;;22.96;58.82;101281.19;4978211;28;1617;-69
2023/09/09 12:31:33;;;;;;;;;;;;;;;22.96;58.78;101279.03;4978049;28;6165;-69
2023/09/09 12:34:00;;;;;;;;;;;;;;;22.96;58.52;101273.28;4979303;28;1915;-70
2023/09/09 12:36:31;;;;;;;;;;;;;;;22.95;58.65;101274.69;4979731;28;2473;-69
2023/09/09 12:38:57;;;;;;;;;;;;;;;22.96;58.76;101273.28;4978058;28;2223;-69
2023/09/09 12:41:24;;;;;;;;;;;;;;;22.96;58.97;101275.41;4979383;28;2188;-69
2023/09/09 12:43:51;;;;;;;;;;;;;;;22.96;58.70;101270.38;4978898;28;1636;-69
2023/09/09 12:46:18;;;;;;;;;;;;;;;22.97;58.61;101265.34;4978628;28;2277;-69
2023/09/09 12:48:55;;;;;;;;;;;;;;;22.97;58.81;101271.84;4980684;28;1655;-69